Time;durP1;ratioP1;P1;durP2;ratioP2;P2;SDS_P1;SDS_P2;PMS_P1;PMS_P2;Temp;Humidity;BMP_temperature;BMP_pressure;BME280_temperature;BME280_humidity;BME280_pressure;Samples;Min_cycle;Max_cycle;Signal;HPM_P1;HPM_P2
2023/05/11 00:02:47;;;;;;;1.08;0.80;;;;;;;12.26;100.00;98231.66;15278043;19;20402;-48
2023/05/11 00:08:11;;;;;;;0.77;0.60;;;;;;;12.25;100.00;98227.28;15277721;19;20015;-46
2023/05/11 00:13:38;;;;;;;2.05;0.70;;;;;;;12.22;100.00;98222.22;15282813;19;20018;-47
2023/05/11 00:19:03;;;;;;;1.00;0.70;;;;;;;12.24;100.00;98228.28;15281615;19;20015;-47
2023/05/11 00:24:35;;;;;;;1.13;0.80;;;;;;;12.13;100.00;98216.00;15286273;19;20018;-44
2023/05/11 00:30:02;;;;;;;1.23;1.10;;;;;;;11.94;100.00;98233.44;15281163;19;20022;-46
2023/05/11 00:35:27;;;;;;;1.17;1.08;;;;;;;11.85;100.00;98238.03;15280185;19;20771;-46
2023/05/11 00:40:52;;;;;;;1.33;1.10;;;;;;;11.80;100.00;98232.31;15274977;19;20021;-49
2023/05/11 00:46:20;;;;;;;1.80;1.10;;;;;;;11.77;100.00;98258.81;15282825;19;20025;-48
2023/05/11 00:51:45;;;;;;;1.52;1.40;;;;;;;11.78;100.00;98253.22;15283712;19;20010;-46
2023/05/11 00:57:11;;;;;;;2.53;1.40;;;;;;;11.82;100.00;98259.97;15282921;19;20050;-48
2023/05/11 01:02:40;;;;;;;1.60;1.50;;;;;;;11.83;100.00;98261.66;15282323;19;20018;-49
2023/05/11 01:08:19;;;;;;;2.35;1.50;;;;;;;11.82;100.00;98259.13;15279908;19;20029;-49
2023/05/11 01:13:50;;;;;;;2.08;1.48;;;;;;;11.78;100.00;98255.94;15277365;19;20022;-47
2023/05/11 01:19:35;;;;;;;8.18;1.80;;;;;;;11.83;100.00;98260.81;15277413;19;20042;-48
2023/05/11 01:25:12;;;;;;;124.78;4.95;;;;;;;11.84;100.00;98254.41;15281018;19;20021;-47
2023/05/11 01:30:44;;;;;;;5.78;1.42;;;;;;;11.83;100.00;98256.28;15293367;19;20022;-79
2023/05/11 01:36:12;;;;;;;222.85;5.07;;;;;;;11.85;100.00;98253.38;15306719;19;20017;-79
2023/05/11 01:41:39;;;;;;;40.50;2.50;;;;;;;11.85;100.00;98250.69;15311510;19;20026;-78
2023/05/11 01:47:08;;;;;;;1.35;1.25;;;;;;;11.87;100.00;98249.50;15307420;19;20505;-78
2023/05/11 01:52:34;;;;;;;1.67;1.58;;;;;;;11.86;100.00;98260.47;15291952;19;20014;-79
2023/05/11 01:58:00;;;;;;;1.77;1.67;;;;;;;11.88;100.00;98258.44;15288014;19;20023;-80
2023/05/11 02:03:28;;;;;;;1.40;1.30;;;;;;;11.90;100.00;98267.22;15285760;19;20018;-78
2023/05/11 02:08:55;;;;;;;1.30;1.20;;;;;;;11.92;100.00;98264.34;15293312;19;20029;-78
2023/05/11 02:14:20;;;;;;;61.75;2.67;;;;;;;11.93;100.00;98257.91;15299613;19;21194;-79
2023/05/11 02:19:49;;;;;;;4.80;1.20;;;;;;;11.92;100.00;98257.09;15304932;19;20044;-79
2023/05/11 02:25:16;;;;;;;153.75;4.68;;;;;;;11.92;100.00;98257.09;15299199;19;20007;-78
2023/05/11 02:30:52;;;;;;;2.42;1.52;;;;;;;11.91;100.00;98252.69;15332550;19;20015;-79
2023/05/11 02:36:23;;;;;;;5.20;1.65;;;;;;;11.93;100.00;98256.06;15332531;19;20564;-78
2023/05/11 02:41:52;;;;;;;164.23;5.15;;;;;;;11.92;100.00;98251.69;15283982;19;20007;-78
2023/05/11 02:47:19;;;;;;;23.08;2.28;;;;;;;11.93;100.00;98249.81;15283789;19;20035;-78
2023/05/11 02:52:50;;;;;;;18.08;2.22;;;;;;;11.92;100.00;98250.84;15291463;19;20467;-78
2023/05/11 02:58:16;;;;;;;5.10;2.17;;;;;;;11.91;100.00;98258.09;15290448;19;20357;-78
2023/05/11 03:03:53;;;;;;;3.95;1.95;;;;;;;11.91;100.00;98260.81;15285638;19;20467;-80
2023/05/11 03:09:21;;;;;;;8.45;1.85;;;;;;;11.93;100.00;98247.97;15283216;19;20034;-78
2023/05/11 03:14:46;;;;;;;110.53;3.35;;;;;;;11.91;100.00;98244.59;15289418;19;20014;-81
2023/05/11 03:20:13;;;;;;;105.45;3.17;;;;;;;11.88;100.00;98248.47;15288735;19;20482;-79
2023/05/11 03:25:40;;;;;;;405.63;8.55;;;;;;;11.81;100.00;98235.88;15287916;19;20077;-80
2023/05/11 03:31:06;;;;;;;177.20;4.30;;;;;;;11.82;100.00;98242.91;15282939;19;20010;-80
2023/05/11 03:36:33;;;;;;;232.18;4.53;;;;;;;11.80;100.00;98240.41;15280384;19;20485;-79
2023/05/11 03:42:03;;;;;;;166.45;4.43;;;;;;;11.77;100.00;98239.94;15280861;19;20477;-79
2023/05/11 03:47:37;;;;;;;37.08;1.80;;;;;;;11.74;100.00;98254.63;15285948;19;20022;-79
2023/05/11 03:53:02;;;;;;;11.48;1.50;;;;;;;11.72;100.00;98252.06;15277269;19;20106;-79
2023/05/11 03:58:30;;;;;;;40.17;1.63;;;;;;;11.71;100.00;98257.66;15281305;19;20472;-80
2023/05/11 04:03:55;;;;;;;31.27;1.55;;;;;;;11.70;100.00;98256.78;15282059;19;20018;-81
2023/05/11 04:09:20;;;;;;;6.57;0.98;;;;;;;11.70;100.00;98256.78;15278684;19;20468;-82
2023/05/11 04:14:48;;;;;;;16.27;1.30;;;;;;;11.70;100.00;98262.19;15281796;19;20516;-81
2023/05/11 04:20:14;;;;;;;50.97;1.98;;;;;;;11.69;100.00;98260.53;15284939;19;20715;-81
2023/05/11 04:25:39;;;;;;;5.13;0.80;;;;;;;11.72;100.00;98264.72;15282544;19;20018;-80
2023/05/11 04:31:13;;;;;;;0.90;0.90;;;;;;;11.74;100.00;98254.63;15277943;19;20094;-78
2023/05/11 04:36:38;;;;;;;0.90;0.90;;;;;;;11.76;100.00;98266.06;15300533;19;20018;-81
2023/05/11 04:42:04;;;;;;;0.70;0.70;;;;;;;11.79;100.00;98264.88;15296892;19;20013;-78
2023/05/11 04:47:37;;;;;;;0.98;0.80;;;;;;;11.83;100.00;98274.31;15285160;19;20025;-80
2023/05/11 04:53:02;;;;;;;1.00;1.00;;;;;;;11.80;100.00;98269.28;15300754;19;20023;-79
2023/05/11 04:58:27;;;;;;;1.52;1.10;;;;;;;11.83;100.00;98280.56;15291661;19;20023;-79
2023/05/11 05:03:56;;;;;;;19.88;1.95;;;;;;;11.84;100.00;98284.09;15288215;19;20014;-79
2023/05/11 05:09:22;;;;;;;86.85;5.03;;;;;;;11.82;100.00;98286.13;15284747;19;20365;-78
2023/05/11 05:14:53;;;;;;;314.45;10.80;;;;;;;11.75;100.00;98291.38;15274876;19;20663;-45
2023/05/11 05:20:21;;;;;;;370.30;11.70;;;;;;;11.74;100.00;98294.25;15276378;19;20019;-45
2023/05/11 05:25:45;;;;;;;20.92;2.63;;;;;;;11.77;100.00;98302.00;15282199;19;20535;-43
2023/05/11 05:31:10;;;;;;;22.48;3.10;;;;;;;11.75;100.00;98304.88;15270837;19;20089;-44
2023/05/11 05:36:38;;;;;;;32.42;3.22;;;;;;;11.77;100.00;98323.59;15276143;19;20620;-44
2023/05/11 05:42:04;;;;;;;3.47;1.80;;;;;;;11.82;100.00;98329.28;15286905;19;20017;-42
2023/05/11 05:47:29;;;;;;;13.95;2.35;;;;;;;11.81;100.00;98341.97;15285199;19;20356;-43
2023/05/11 05:52:57;;;;;;;17.25;2.42;;;;;;;11.78;100.00;98346.88;15285416;19;20030;-42
2023/05/11 05:58:22;;;;;;;1.83;1.70;;;;;;;11.84;100.00;98354.28;15277445;19;20751;-43
2023/05/11 06:03:47;;;;;;;1.40;1.30;;;;;;;11.82;100.00;98361.69;15276088;19;20485;-45
2023/05/11 06:09:17;;;;;;;1.77;1.33;;;;;;;11.84;100.00;98368.63;15274257;19;20482;-43
2023/05/11 06:14:42;;;;;;;1.27;1.17;;;;;;;11.88;100.00;98371.81;15274958;19;20689;-44
2023/05/11 06:20:08;;;;;;;1.23;1.13;;;;;;;11.88;100.00;98366.41;15272252;19;20078;-43
2023/05/11 06:25:39;;;;;;;1.27;1.17;;;;;;;11.95;100.00;98372.81;15277873;19;20033;-42
2023/05/11 06:31:05;;;;;;;1.30;1.20;;;;;;;11.97;100.00;98376.19;15272580;19;20018;-43
2023/05/11 06:36:33;;;;;;;1.20;1.10;;;;;;;11.97;100.00;98375.34;15270123;19;20022;-43
2023/05/11 06:42:02;;;;;;;1.30;1.20;;;;;;;12.02;100.00;98373.00;15275689;19;20016;-45
2023/05/11 06:47:28;;;;;;;0.82;0.82;;;;;;;12.04;100.00;98365.56;15275222;19;20022;-43
2023/05/11 06:52:53;;;;;;;1.08;0.80;;;;;;;12.10;100.00;98375.72;15274807;19;20616;-45
2023/05/11 06:58:21;;;;;;;0.60;0.60;;;;;;;12.17;100.00;98370.47;15272530;19;20022;-45
2023/05/11 07:03:47;;;;;;;3.17;0.90;;;;;;;12.25;100.00;98372.25;15276489;19;20025;-44
2023/05/11 07:09:12;;;;;;;0.85;0.85;;;;;;;12.28;100.00;98369.22;15267390;19;20396;-46
2023/05/11 07:14:46;;;;;;;1.20;1.10;;;;;;;12.32;100.00;98374.09;15268807;19;20023;-45
2023/05/11 07:20:12;;;;;;;1.40;1.30;;;;;;;12.39;100.00;98374.25;15272712;19;20021;-44
2023/05/11 07:25:36;;;;;;;1.40;1.30;;;;;;;12.46;100.00;98377.97;15275461;19;20022;-45
2023/05/11 07:31:04;;;;;;;0.93;0.80;;;;;;;12.53;100.00;98383.47;15270011;19;20014;-46
2023/05/11 07:36:28;;;;;;;0.90;0.90;;;;;;;12.53;100.00;98380.78;15268934;19;20021;-45
2023/05/11 07:41:53;;;;;;;0.90;0.90;;;;;;;12.57;100.00;98371.31;15273115;19;20014;-45
2023/05/11 07:47:22;;;;;;;1.35;1.25;;;;;;;12.61;100.00;98364.56;15272320;19;20014;-43
2023/05/11 07:52:47;;;;;;;2.25;1.60;;;;;;;12.73;100.00;98366.88;15273668;19;20018;-44
2023/05/11 07:58:12;;;;;;;2.50;2.30;;;;;;;12.87;100.00;98385.03;15267375;19;20029;-46
2023/05/11 08:03:40;;;;;;;4.07;2.80;;;;;;;12.98;100.00;98385.66;15269601;19;20022;-43
2023/05/11 08:09:04;;;;;;;2.70;2.50;;;;;;;13.06;100.00;98380.19;15267759;19;20022;-46
2023/05/11 08:14:37;;;;;;;2.25;1.30;;;;;;;13.10;100.00;98370.72;15270241;19;20022;-44
2023/05/11 08:20:05;;;;;;;1.40;1.30;;;;;;;13.10;100.00;98354.50;15268801;19;20029;-43
2023/05/11 08:25:29;;;;;;;2.08;1.80;;;;;;;13.30;100.00;98362.13;15284419;19;20010;-43
2023/05/11 08:30:57;;;;;;;4.57;3.70;;;;;;;13.59;100.00;98365.97;15279759;19;20021;-45
2023/05/11 08:36:24;;;;;;;5.53;3.92;;;;;;;13.78;100.00;98349.22;15285453;19;20502;-44
2023/05/11 08:41:51;;;;;;;4.90;4.20;;;;;;;13.96;100.00;98326.38;15281631;19;20014;-47
2023/05/11 08:47:16;;;;;;;5.15;4.28;;;;;;;14.12;100.00;98287.41;15281540;19;20022;-43
2023/05/11 08:52:44;;;;;;;5.35;4.65;;;;;;;14.27;100.00;98279.31;15285460;19;20018;-44
2023/05/11 08:58:10;;;;;;;5.57;4.97;;;;;;;14.39;100.00;98253.41;15289271;19;20018;-43
2023/05/11 09:03:37;;;;;;;5.78;4.82;;;;;;;14.43;100.00;98227.56;15289537;19;20018;-43
2023/05/11 09:09:05;;;;;;;4.93;4.47;;;;;;;14.55;100.00;98218.94;15287852;19;20013;-43
2023/05/11 09:14:36;;;;;;;4.70;4.30;;;;;;;14.69;100.00;98211.84;15279385;19;20470;-44
2023/05/11 09:20:04;;;;;;;4.63;4.10;;;;;;;14.87;100.00;98208.69;15280594;19;20020;-43
2023/05/11 09:25:33;;;;;;;3.85;3.50;;;;;;;14.84;100.00;98198.22;15286093;19;20025;-44
2023/05/11 09:30:58;;;;;;;4.22;3.83;;;;;;;14.78;100.00;98181.66;15281354;19;20017;-49
2023/05/11 09:36:32;;;;;;;3.70;3.40;;;;;;;14.75;100.00;98184.78;15286716;19;20013;-48
2023/05/11 09:42:19;;;;;;;4.43;3.65;;;;;;;14.93;100.00;98186.19;15291592;19;20030;-44
2023/05/11 09:47:48;;;;;;;4.28;3.63;;;;;;;15.22;100.00;98211.47;15278217;19;20014;-45
2023/05/11 09:53:13;;;;;;;3.20;2.90;;;;;;;15.35;100.00;98176.28;15282699;19;20021;-43
2023/05/11 09:58:54;;;;;;;2.67;2.47;;;;;;;15.61;100.00;98166.63;15276367;19;20010;-44
2023/05/11 10:04:19;;;;;;;2.33;2.20;;;;;;;15.72;100.00;98151.66;15279531;19;20014;-44
2023/05/11 10:09:44;;;;;;;2.10;1.90;;;;;;;15.72;100.00;98136.19;15278531;19;20025;-43
2023/05/11 10:15:13;;;;;;;1.90;1.60;;;;;;;15.86;100.00;98118.13;15277457;19;20019;-43
2023/05/11 10:20:37;;;;;;;1.80;1.70;;;;;;;16.20;100.00;98126.34;15271700;19;20018;-43
2023/05/11 10:26:03;;;;;;;2.72;1.40;;;;;;;16.36;100.00;98124.31;15280318;19;20029;-43
2023/05/11 10:31:32;;;;;;;1.50;1.40;;;;;;;16.44;100.00;98116.81;15272369;19;20081;-45
2023/05/11 10:37:01;;;;;;;1.30;1.20;;;;;;;16.50;100.00;98106.97;15276450;19;20014;-44
2023/05/11 10:42:43;;;;;;;2.05;1.00;;;;;;;16.56;100.00;98097.97;15277742;19;20018;-44
2023/05/11 10:48:38;;;;;;;1.40;1.30;;;;;;;16.62;100.00;98107.19;15271893;19;20012;-44
2023/05/11 10:54:14;;;;;;;1.17;1.10;;;;;;;16.63;100.00;98098.84;15272103;19;20024;-44
2023/05/11 10:59:53;;;;;;;1.88;1.40;;;;;;;16.66;100.00;98118.47;15270213;19;20609;-45
2023/05/11 11:05:21;;;;;;;1.02;0.80;;;;;;;16.69;100.00;98110.78;15272952;19;20010;-46
2023/05/11 11:10:48;;;;;;;0.90;0.90;;;;;;;17.00;100.00;98103.03;15272701;19;20010;-45
2023/05/11 11:16:22;;;;;;;0.70;0.70;;;;;;;17.35;100.00;98097.31;15271292;19;20022;-45
2023/05/11 11:21:50;;;;;;;0.90;0.90;;;;;;;17.59;100.00;98084.03;15270747;19;20011;-44
2023/05/11 11:27:17;;;;;;;0.70;0.70;;;;;;;17.83;100.00;98066.97;15267272;19;20629;-44
2023/05/11 11:32:48;;;;;;;0.68;0.68;;;;;;;18.13;100.00;98060.97;15270826;19;20029;-44
2023/05/11 11:38:17;;;;;;;0.85;0.70;;;;;;;18.42;100.00;98055.94;15265383;19;20022;-43
2023/05/11 11:43:53;;;;;;;1.58;0.70;;;;;;;18.53;100.00;98069.91;15273857;19;20114;-44
2023/05/11 11:49:18;;;;;;;0.60;0.50;;;;;;;18.68;100.00;98045.06;15271012;19;20098;-45
2023/05/11 11:54:54;;;;;;;0.82;0.70;;;;;;;18.95;100.00;98040.22;15272485;19;20021;-45
2023/05/11 12:00:22;;;;;;;1.35;0.63;;;;;;;19.22;100.00;98042.69;15277611;19;20022;-46
2023/05/11 12:05:53;;;;;;;0.70;0.70;;;;;;;19.35;100.00;98028.84;15289177;19;20033;-44
2023/05/11 12:11:23;;;;;;;0.73;0.68;;;;;;;19.46;100.00;98029.19;15277934;19;20341;-46
2023/05/11 12:17:14;;;;;;;0.50;0.50;;;;;;;19.63;100.00;98029.38;15280492;19;20015;-45
2023/05/11 12:22:39;;;;;;;0.73;0.73;;;;;;;19.83;100.00;98040.88;15284795;19;20014;-44
2023/05/11 12:28:07;;;;;;;0.70;0.70;;;;;;;19.80;100.00;98032.31;15281863;19;20465;-46
2023/05/11 12:33:31;;;;;;;0.90;0.73;;;;;;;19.47;100.00;98017.16;15284174;19;20018;-44
2023/05/11 12:38:57;;;;;;;0.63;0.60;;;;;;;19.30;100.00;98023.25;15277681;19;20011;-45
2023/05/11 12:44:27;;;;;;;0.73;0.60;;;;;;;19.22;100.00;98020.84;15283874;19;20077;-44
2023/05/11 12:49:52;;;;;;;0.50;0.50;;;;;;;19.29;100.00;98018.00;15283212;19;20751;-45
2023/05/11 12:55:29;;;;;;;1.23;0.60;;;;;;;19.33;100.00;98011.88;15287460;19;20017;-48
2023/05/11 13:01:03;;;;;;;0.50;0.50;;;;;;;19.42;100.00;98014.31;15277442;19;20014;-44
2023/05/11 13:06:27;;;;;;;0.93;0.57;;;;;;;19.41;100.00;98005.25;15292861;19;20022;-54
2023/05/11 13:11:52;;;;;;;0.50;0.50;;;;;;;19.75;100.00;97999.38;15290069;19;20059;-46
2023/05/11 13:17:31;;;;;;;1.00;0.60;;;;;;;19.80;100.00;97988.59;15290486;19;20025;-46
2023/05/11 13:22:58;;;;;;;1.05;0.80;;;;;;;19.41;100.00;97997.06;15289820;19;20014;-46
2023/05/11 13:28:24;;;;;;;4.28;1.10;;;;;;;19.30;100.00;98011.47;15283160;19;20014;-46
2023/05/11 13:33:51;;;;;;;2.15;0.80;;;;;;;19.11;100.00;98018.88;15279421;19;20017;-44
2023/05/11 13:39:15;;;;;;;1.30;0.60;;;;;;;18.75;100.00;98019.38;15275851;19;20021;-44
2023/05/11 13:44:55;;;;;;;1.75;0.70;;;;;;;18.58;100.00;98029.19;15285741;19;20054;-44
2023/05/11 13:50:22;;;;;;;1.15;0.70;;;;;;;18.49;100.00;98023.16;15264926;19;20022;-47
2023/05/11 13:55:47;;;;;;;2.35;0.60;;;;;;;18.40;100.00;98019.91;15277729;19;20018;-47
2023/05/11 14:01:11;;;;;;;2.80;0.60;;;;;;;18.23;100.00;98014.13;15278365;19;20128;-47
2023/05/11 14:06:43;;;;;;;2.15;0.60;;;;;;;18.27;100.00;98020.00;15275464;19;20477;-45
2023/05/11 14:12:09;;;;;;;1.30;0.70;;;;;;;18.23;100.00;98011.41;15276204;19;20018;-47
2023/05/11 14:17:34;;;;;;;1.30;0.60;;;;;;;18.21;100.00;98018.13;15273898;19;20609;-51
2023/05/11 14:23:01;;;;;;;1.23;0.60;;;;;;;18.26;100.00;98018.31;15270319;19;20017;-49
2023/05/11 14:28:26;;;;;;;1.73;0.60;;;;;;;18.32;100.00;98006.53;15275851;19;20487;-50
2023/05/11 14:33:50;;;;;;;0.50;0.50;;;;;;;18.25;100.00;98016.66;15274825;19;20043;-47
2023/05/11 14:39:18;;;;;;;2.53;0.70;;;;;;;18.19;100.00;98018.38;15269042;19;20077;-50
2023/05/11 14:44:42;;;;;;;0.63;0.50;;;;;;;17.89;100.00;98018.13;15274628;19;20014;-52
2023/05/11 14:50:16;;;;;;;0.68;0.60;;;;;;;17.71;100.00;98015.06;15273178;19;20355;-51
2023/05/11 14:55:43;;;;;;;0.90;0.65;;;;;;;17.40;100.00;98022.09;15274630;19;20363;-51
2023/05/11 15:01:08;;;;;;;1.02;0.70;;;;;;;17.24;100.00;98028.88;15250877;19;20045;-50
2023/05/11 15:06:32;;;;;;;1.20;0.52;;;;;;;17.13;100.00;98025.97;15271335;19;20014;-48
2023/05/11 15:12:02;;;;;;;2.10;0.65;;;;;;;16.97;100.00;98032.72;15264748;19;20372;-48
2023/05/11 15:17:28;;;;;;;0.57;0.50;;;;;;;16.92;100.00;98039.59;15270001;19;20479;-44
2023/05/11 15:22:53;;;;;;;1.00;0.70;;;;;;;16.91;100.00;98042.53;15273161;19;20018;-49
2023/05/11 15:28:21;;;;;;;3.92;0.55;;;;;;;16.89;100.00;98053.59;15269569;19;20021;-48
2023/05/11 15:33:47;;;;;;;0.80;0.80;;;;;;;16.85;100.00;98059.69;15266568;19;20025;-48
2023/05/11 15:39:12;;;;;;;1.08;0.75;;;;;;;16.77;100.00;98058.88;14757192;19;10001995;-48
2023/05/11 15:44:45;;;;;;;0.93;0.60;;;;;;;16.81;100.00;98069.34;15261606;19;20041;-43
2023/05/11 15:50:16;;;;;;;1.33;0.65;;;;;;;16.61;100.00;98079.16;15270781;19;20025;-46
2023/05/11 15:55:43;;;;;;;1.38;0.60;;;;;;;16.60;100.00;98084.81;15268926;19;20384;-44
2023/05/11 16:01:12;;;;;;;0.63;0.63;;;;;;;16.41;100.00;98084.59;15255092;19;20355;-44
2023/05/11 16:06:37;;;;;;;1.02;0.70;;;;;;;16.29;100.00;98081.63;15268065;19;20023;-47
2023/05/11 16:12:03;;;;;;;0.93;0.68;;;;;;;16.27;100.00;98088.31;15268095;19;20015;-47
2023/05/11 16:17:31;;;;;;;1.45;1.10;;;;;;;16.17;100.00;98086.84;15259200;19;20030;-45
2023/05/11 16:22:57;;;;;;;0.73;0.63;;;;;;;16.09;100.00;98099.78;15262796;19;20390;-44
2023/05/11 16:28:23;;;;;;;0.63;0.50;;;;;;;16.09;100.00;98097.91;15264649;19;20021;-48
2023/05/11 16:33:52;;;;;;;1.30;0.65;;;;;;;16.06;100.00;98103.75;15266856;19;20078;-48
2023/05/11 16:39:17;;;;;;;0.60;0.60;;;;;;;16.09;100.00;98097.06;15263234;19;20021;-43
2023/05/11 16:50:46;;;;;;;0.82;0.60;;;;;;;15.98;100.00;98104.78;15252328;19;20015;-47
2023/05/11 16:56:12;;;;;;;0.60;0.60;;;;;;;16.06;100.00;98106.47;15265473;19;20018;-44
2023/05/11 17:01:37;;;;;;;1.48;0.90;;;;;;;16.10;100.00;98104.19;15268858;19;20025;-48
2023/05/11 17:07:07;;;;;;;0.50;0.50;;;;;;;16.16;100.00;98115.06;15267716;19;20018;-44
2023/05/11 17:12:34;;;;;;;0.70;0.60;;;;;;;16.19;100.00;98108.38;15275060;19;20023;-44
2023/05/11 17:18:00;;;;;;;0.82;0.60;;;;;;;16.20;100.00;98101.91;15275597;19;20041;-46
2023/05/11 17:23:27;;;;;;;2.85;0.52;;;;;;;16.21;100.00;98109.00;15276370;19;20010;-46
2023/05/11 17:28:54;;;;;;;0.88;0.55;;;;;;;16.21;100.00;98109.00;15267700;19;20026;-44
2023/05/11 17:34:18;;;;;;;2.22;0.60;;;;;;;16.23;100.00;98116.97;15276854;19;20025;-44
2023/05/11 17:39:48;;;;;;;1.00;0.52;;;;;;;16.19;100.00;98119.25;15275946;19;20052;-43
2023/05/11 17:45:15;;;;;;;0.50;0.50;;;;;;;16.20;100.00;98118.19;15276473;19;20019;-45
2023/05/11 17:50:41;;;;;;;0.85;0.63;;;;;;;16.18;100.00;98136.59;15271625;19;20014;-49
2023/05/11 17:56:10;;;;;;;0.50;0.50;;;;;;;16.16;100.00;98139.53;15280436;19;20022;-45
2023/05/11 18:01:36;;;;;;;1.67;0.60;;;;;;;16.11;100.00;98135.75;15273062;19;20471;-45
2023/05/11 18:07:00;;;;;;;1.90;1.30;;;;;;;16.09;100.00;98145.97;15273191;19;20404;-46
2023/05/11 18:12:29;;;;;;;9.52;6.93;;;;;;;15.98;100.00;98150.13;15277107;19;20011;-48
2023/05/11 18:17:53;;;;;;;2.63;1.50;;;;;;;15.84;100.00;98151.91;15276072;19;20030;-45
2023/05/11 18:23:18;;;;;;;1.23;1.02;;;;;;;15.68;100.00;98150.38;15270303;19;20022;-44
2023/05/11 18:28:45;;;;;;;1.90;1.70;;;;;;;15.53;100.00;98159.47;15272940;19;20110;-51
2023/05/11 18:34:10;;;;;;;2.17;1.17;;;;;;;15.42;100.00;98162.75;15275687;19;20025;-53
2023/05/11 18:39:34;;;;;;;1.50;1.00;;;;;;;15.37;100.00;98163.34;15268635;19;20538;-51
2023/05/11 18:45:02;;;;;;;1.52;0.90;;;;;;;15.29;100.00;98165.41;15274810;19;20050;-49
2023/05/11 18:50:28;;;;;;;0.60;0.60;;;;;;;15.17;100.00;98173.22;15268873;19;20010;-50
2023/05/11 18:55:54;;;;;;;0.60;0.60;;;;;;;15.06;100.00;98175.44;15270139;19;20025;-50
2023/05/11 19:07:16;;;;;;;1.05;0.75;;;;;;;14.89;100.00;98198.44;15262533;19;20046;-47
2023/05/11 19:12:42;;;;;;;1.95;0.75;;;;;;;14.79;100.00;98199.63;15268645;19;20014;-50
2023/05/11 19:18:08;;;;;;;2.63;0.90;;;;;;;14.74;100.00;98204.81;15268256;19;20028;-47
2023/05/11 19:23:36;;;;;;;1.17;0.80;;;;;;;14.62;100.00;98215.28;15272872;19;20014;-49
2023/05/11 19:29:01;;;;;;;1.45;0.80;;;;;;;14.57;100.00;98214.16;15266964;19;20018;-46
2023/05/11 19:34:26;;;;;;;1.77;1.00;;;;;;;14.52;100.00;98222.06;15271310;19;20022;-49
2023/05/11 19:39:53;;;;;;;1.13;1.00;;;;;;;14.47;100.00;98217.19;15208635;19;20021;-47
2023/05/11 19:45:38;;;;;;;0.68;0.63;;;;;;;14.40;100.00;98219.84;15272578;19;20025;-49
2023/05/11 19:51:09;;;;;;;2.90;0.77;;;;;;;14.39;100.00;98233.56;15267362;19;20479;-47
2023/05/11 19:56:37;;;;;;;2.15;0.80;;;;;;;14.33;100.00;98229.75;15270015;19;20018;-51
2023/05/11 20:02:01;;;;;;;1.15;0.70;;;;;;;14.32;100.00;98238.91;15264010;19;20022;-47
2023/05/11 20:07:27;;;;;;;0.57;0.50;;;;;;;14.28;100.00;98235.75;15268893;19;20023;-46
2023/05/11 20:12:58;;;;;;;1.50;0.60;;;;;;;14.25;100.00;98238.00;15269552;19;20027;-49
2023/05/11 20:18:23;;;;;;;1.88;1.08;;;;;;;14.11;100.00;98245.94;15266448;19;20021;-47
2023/05/11 20:23:48;;;;;;;1.23;0.98;;;;;;;14.03;100.00;98256.91;15283579;19;20043;-49
2023/05/11 20:29:16;;;;;;;1.38;0.90;;;;;;;13.90;100.00;98262.13;15280224;19;20021;-47
2023/05/11 20:34:41;;;;;;;1.40;0.98;;;;;;;13.75;100.00;98254.00;15282613;19;20021;-48
2023/05/11 20:40:07;;;;;;;1.27;0.90;;;;;;;13.63;100.00;98257.16;15278448;19;20295;-48
2023/05/11 20:45:35;;;;;;;1.23;0.90;;;;;;;13.60;100.00;98262.94;15279992;19;20015;-46
2023/05/11 20:51:07;;;;;;;1.88;0.98;;;;;;;13.51;100.00;98280.28;15275653;19;20074;-47
2023/05/11 20:56:31;;;;;;;1.65;1.10;;;;;;;13.35;100.00;98273.13;15281383;19;20351;-48
2023/05/11 21:01:59;;;;;;;3.50;1.08;;;;;;;13.23;100.00;98270.84;15276835;19;20543;-50
2023/05/11 21:07:27;;;;;;;1.30;1.00;;;;;;;13.17;100.00;98277.00;15277723;19;20023;-50
2023/05/11 21:12:51;;;;;;;1.70;1.20;;;;;;;13.07;100.00;98284.53;15284427;19;20334;-48
2023/05/11 21:18:19;;;;;;;1.67;1.10;;;;;;;12.94;100.00;98296.78;15273802;19;20035;-48
2023/05/11 21:23:44;;;;;;;1.30;1.10;;;;;;;12.75;100.00;98292.66;15283510;19;20349;-51
2023/05/11 21:29:11;;;;;;;1.55;1.10;;;;;;;12.63;100.00;98303.06;15263525;19;20018;-43
2023/05/11 21:34:38;;;;;;;1.38;1.27;;;;;;;12.56;100.00;98306.66;15279719;19;20034;-44
2023/05/11 21:40:03;;;;;;;2.40;1.30;;;;;;;12.45;100.00;98311.44;15273996;19;20014;-43
2023/05/11 21:45:27;;;;;;;3.08;1.48;;;;;;;12.39;100.00;98330.19;15283397;19;20013;-43
2023/05/11 21:50:57;;;;;;;1.40;1.30;;;;;;;12.29;100.00;98333.94;15276165;19;20022;-42
2023/05/11 21:56:22;;;;;;;4.28;1.30;;;;;;;12.24;100.00;98344.44;15279776;19;20810;-42
2023/05/11 22:01:48;;;;;;;2.22;1.60;;;;;;;11.84;100.00;98343.47;15277703;19;20677;-42
2023/05/11 22:07:15;;;;;;;4.25;1.60;;;;;;;11.70;100.00;98367.44;15279354;19;20018;-43
2023/05/11 22:12:40;;;;;;;2.70;1.40;;;;;;;11.72;100.00;98378.09;15277106;19;20859;-42
2023/05/11 22:18:04;;;;;;;1.40;1.30;;;;;;;11.71;100.00;98377.22;15278774;19;20026;-43
2023/05/11 22:23:31;;;;;;;1.60;1.35;;;;;;;11.74;100.00;98375.19;15277911;19;20093;-43
2023/05/11 22:29:03;;;;;;;1.88;1.42;;;;;;;11.74;100.00;98367.09;15276512;19;20356;-42
2023/05/11 22:34:28;;;;;;;2.97;1.60;;;;;;;11.70;100.00;98369.31;15279768;19;20021;-43
2023/05/11 22:39:55;;;;;;;2.20;1.80;;;;;;;11.56;100.00;98382.47;15271415;19;20049;-43
2023/05/11 22:45:20;;;;;;;1.63;1.42;;;;;;;11.57;100.00;98386.84;15278318;19;20010;-43
2023/05/11 22:50:46;;;;;;;1.75;1.50;;;;;;;11.64;100.00;98395.13;15271855;19;20025;-43
2023/05/11 22:56:13;;;;;;;1.92;1.30;;;;;;;11.69;100.00;98389.22;15273452;19;20006;-43
2023/05/11 23:01:38;;;;;;;3.28;1.50;;;;;;;11.67;100.00;98386.69;15274960;19;20018;-43
2023/05/11 23:07:04;;;;;;;1.60;1.42;;;;;;;11.70;100.00;98386.31;15275726;19;20018;-44
2023/05/11 23:12:31;;;;;;;2.05;1.70;;;;;;;11.68;100.00;98399.16;15272169;19;20497;-42
2023/05/11 23:17:57;;;;;;;2.22;1.33;;;;;;;11.72;100.00;98405.06;15274141;19;20029;-43
2023/05/11 23:23:21;;;;;;;2.50;1.40;;;;;;;11.71;100.00;98398.81;15269858;19;20014;-42
2023/05/11 23:28:55;;;;;;;2.78;1.30;;;;;;;11.65;100.00;98386.00;15273895;19;20469;-42
2023/05/11 23:34:20;;;;;;;1.40;1.30;;;;;;;11.64;100.00;98387.03;15274448;19;20607;-41
2023/05/11 23:39:44;;;;;;;4.22;1.50;;;;;;;11.60;100.00;98372.16;15271461;19;20020;-43
2023/05/11 23:45:13;;;;;;;1.75;1.35;;;;;;;11.56;100.00;98385.16;15271832;19;20030;-42
2023/05/11 23:50:37;;;;;;;1.90;1.27;;;;;;;11.46;100.00;98394.44;15266177;19;20026;-42
2023/05/11 23:56:02;;;;;;;2.08;1.60;;;;;;;11.45;100.00;98409.78;15285786;19;20039;-43
